sensor_id;sensor_type;location;lat;lon;timestamp;temperature;humidity
66312;HTU21D;53114;51.138;6.008;2023-05-07T00:00:40;15.76;118.99
66312;HTU21D;53114;51.138;6.008;2023-05-07T00:03:06;15.75;118.99
66312;HTU21D;53114;51.138;6.008;2023-05-07T00:05:32;15.73;118.99
66312;HTU21D;53114;51.138;6.008;2023-05-07T00:07:58;15.68;118.99
66312;HTU21D;53114;51.138;6.008;2023-05-07T00:10:24;15.62;118.99
66312;HTU21D;53114;51.138;6.008;2023-05-07T00:12:51;15.60;118.99
66312;HTU21D;53114;51.138;6.008;2023-05-07T00:15:17;15.60;118.99
66312;HTU21D;53114;51.138;6.008;2023-05-07T00:17:42;15.61;118.99
66312;HTU21D;53114;51.138;6.008;2023-05-07T00:20:09;15.63;118.99
66312;HTU21D;53114;51.138;6.008;2023-05-07T00:22:35;15.67;118.99
66312;HTU21D;53114;51.138;6.008;2023-05-07T00:25:01;15.68;118.99
66312;HTU21D;53114;51.138;6.008;2023-05-07T00:27:27;15.68;118.99
66312;HTU21D;53114;51.138;6.008;2023-05-07T00:29:53;15.71;118.99
66312;HTU21D;53114;51.138;6.008;2023-05-07T00:32:19;15.72;118.99
66312;HTU21D;53114;51.138;6.008;2023-05-07T00:34:45;15.75;118.99
66312;HTU21D;53114;51.138;6.008;2023-05-07T00:37:11;15.75;118.99
66312;HTU21D;53114;51.138;6.008;2023-05-07T00:39:37;15.74;118.99
66312;HTU21D;53114;51.138;6.008;2023-05-07T00:42:03;15.73;118.99
66312;HTU21D;53114;51.138;6.008;2023-05-07T00:44:29;15.73;118.99
66312;HTU21D;53114;51.138;6.008;2023-05-07T00:46:57;15.75;118.99
66312;HTU21D;53114;51.138;6.008;2023-05-07T00:49:37;15.74;118.99
66312;HTU21D;53114;51.138;6.008;2023-05-07T00:52:04;15.76;118.99
66312;HTU21D;53114;51.138;6.008;2023-05-07T00:54:32;15.75;118.99
66312;HTU21D;53114;51.138;6.008;2023-05-07T00:56:59;15.76;118.99
66312;HTU21D;53114;51.138;6.008;2023-05-07T00:59:26;15.77;118.99
66312;HTU21D;53114;51.138;6.008;2023-05-07T01:01:52;15.80;118.99
66312;HTU21D;53114;51.138;6.008;2023-05-07T01:04:18;15.81;118.99
66312;HTU21D;53114;51.138;6.008;2023-05-07T01:06:45;15.80;118.99
66312;HTU21D;53114;51.138;6.008;2023-05-07T01:09:12;15.81;118.99
66312;HTU21D;53114;51.138;6.008;2023-05-07T01:11:39;15.83;118.99
66312;HTU21D;53114;51.138;6.008;2023-05-07T01:14:08;15.83;118.99
66312;HTU21D;53114;51.138;6.008;2023-05-07T01:16:36;15.81;118.99
66312;HTU21D;53114;51.138;6.008;2023-05-07T01:19:02;15.81;118.99
66312;HTU21D;53114;51.138;6.008;2023-05-07T01:21:33;15.78;118.99
66312;HTU21D;53114;51.138;6.008;2023-05-07T01:24:01;15.74;118.99
66312;HTU21D;53114;51.138;6.008;2023-05-07T01:26:28;15.72;118.99
66312;HTU21D;53114;51.138;6.008;2023-05-07T01:28:54;15.70;118.99
66312;HTU21D;53114;51.138;6.008;2023-05-07T01:31:20;15.66;118.99
66312;HTU21D;53114;51.138;6.008;2023-05-07T01:33:49;15.63;118.99
66312;HTU21D;53114;51.138;6.008;2023-05-07T01:36:18;15.68;118.99
66312;HTU21D;53114;51.138;6.008;2023-05-07T01:38:45;15.69;118.99
66312;HTU21D;53114;51.138;6.008;2023-05-07T01:41:12;15.70;118.99
66312;HTU21D;53114;51.138;6.008;2023-05-07T01:43:40;15.73;118.99
66312;HTU21D;53114;51.138;6.008;2023-05-07T01:46:08;15.74;118.99
66312;HTU21D;53114;51.138;6.008;2023-05-07T01:48:35;15.71;118.99
66312;HTU21D;53114;51.138;6.008;2023-05-07T01:51:02;15.70;118.99
66312;HTU21D;53114;51.138;6.008;2023-05-07T01:53:28;15.68;118.99
66312;HTU21D;53114;51.138;6.008;2023-05-07T01:55:54;15.63;118.99
66312;HTU21D;53114;51.138;6.008;2023-05-07T01:58:21;15.56;118.99
66312;HTU21D;53114;51.138;6.008;2023-05-07T02:00:47;15.51;118.99
66312;HTU21D;53114;51.138;6.008;2023-05-07T02:03:13;15.45;118.99
66312;HTU21D;53114;51.138;6.008;2023-05-07T02:05:46;15.40;118.99
66312;HTU21D;53114;51.138;6.008;2023-05-07T02:08:23;15.32;118.99
66312;HTU21D;53114;51.138;6.008;2023-05-07T02:10:49;15.26;118.99
66312;HTU21D;53114;51.138;6.008;2023-05-07T02:13:17;15.21;118.99
66312;HTU21D;53114;51.138;6.008;2023-05-07T02:15:43;15.16;118.99
66312;HTU21D;53114;51.138;6.008;2023-05-07T02:18:12;15.12;118.99
66312;HTU21D;53114;51.138;6.008;2023-05-07T02:20:38;15.06;118.99
66312;HTU21D;53114;51.138;6.008;2023-05-07T02:23:04;15.00;118.99
66312;HTU21D;53114;51.138;6.008;2023-05-07T02:25:30;14.95;118.99
66312;HTU21D;53114;51.138;6.008;2023-05-07T02:27:57;14.95;118.99
66312;HTU21D;53114;51.138;6.008;2023-05-07T02:30:32;14.97;118.99
66312;HTU21D;53114;51.138;6.008;2023-05-07T02:32:59;14.99;118.99
66312;HTU21D;53114;51.138;6.008;2023-05-07T02:35:25;15.00;118.99
66312;HTU21D;53114;51.138;6.008;2023-05-07T02:37:52;15.01;118.99
66312;HTU21D;53114;51.138;6.008;2023-05-07T02:40:18;15.03;118.99
66312;HTU21D;53114;51.138;6.008;2023-05-07T02:42:44;15.09;118.99
66312;HTU21D;53114;51.138;6.008;2023-05-07T02:45:10;15.14;118.99
66312;HTU21D;53114;51.138;6.008;2023-05-07T02:47:37;15.17;118.99
66312;HTU21D;53114;51.138;6.008;2023-05-07T02:50:04;15.16;118.99
66312;HTU21D;53114;51.138;6.008;2023-05-07T02:52:30;15.19;118.99
66312;HTU21D;53114;51.138;6.008;2023-05-07T02:54:56;15.22;118.99
66312;HTU21D;53114;51.138;6.008;2023-05-07T02:57:25;15.24;118.99
66312;HTU21D;53114;51.138;6.008;2023-05-07T02:59:51;15.27;118.99
66312;HTU21D;53114;51.138;6.008;2023-05-07T03:02:18;15.29;118.99
66312;HTU21D;53114;51.138;6.008;2023-05-07T03:04:44;15.26;118.99
66312;HTU21D;53114;51.138;6.008;2023-05-07T03:07:10;15.26;118.99
66312;HTU21D;53114;51.138;6.008;2023-05-07T03:09:36;15.28;118.99
66312;HTU21D;53114;51.138;6.008;2023-05-07T03:12:02;15.27;118.99
66312;HTU21D;53114;51.138;6.008;2023-05-07T03:14:28;15.24;118.99
66312;HTU21D;53114;51.138;6.008;2023-05-07T03:16:55;15.26;118.99
66312;HTU21D;53114;51.138;6.008;2023-05-07T03:19:21;15.25;118.99
66312;HTU21D;53114;51.138;6.008;2023-05-07T03:21:47;15.24;118.99
66312;HTU21D;53114;51.138;6.008;2023-05-07T03:24:13;15.24;118.99
66312;HTU21D;53114;51.138;6.008;2023-05-07T03:26:39;15.24;118.99
66312;HTU21D;53114;51.138;6.008;2023-05-07T03:29:05;15.22;118.99
66312;HTU21D;53114;51.138;6.008;2023-05-07T03:31:31;15.21;118.99
66312;HTU21D;53114;51.138;6.008;2023-05-07T03:33:57;15.24;118.99
66312;HTU21D;53114;51.138;6.008;2023-05-07T03:36:24;15.29;118.99
66312;HTU21D;53114;51.138;6.008;2023-05-07T03:38:52;15.33;118.99
66312;HTU21D;53114;51.138;6.008;2023-05-07T03:41:24;15.38;118.99
66312;HTU21D;53114;51.138;6.008;2023-05-07T03:43:54;15.34;118.99
66312;HTU21D;53114;51.138;6.008;2023-05-07T03:46:20;15.32;118.99
66312;HTU21D;53114;51.138;6.008;2023-05-07T03:48:46;15.31;118.99
66312;HTU21D;53114;51.138;6.008;2023-05-07T03:51:13;15.30;118.99
66312;HTU21D;53114;51.138;6.008;2023-05-07T03:53:39;15.27;118.99
66312;HTU21D;53114;51.138;6.008;2023-05-07T03:56:06;15.26;118.99
66312;HTU21D;53114;51.138;6.008;2023-05-07T03:58:36;15.29;118.99
66312;HTU21D;53114;51.138;6.008;2023-05-07T04:01:06;15.32;118.99
66312;HTU21D;53114;51.138;6.008;2023-05-07T04:03:33;15.33;118.99
66312;HTU21D;53114;51.138;6.008;2023-05-07T04:05:59;15.37;118.99
66312;HTU21D;53114;51.138;6.008;2023-05-07T04:08:26;15.39;118.99
66312;HTU21D;53114;51.138;6.008;2023-05-07T04:10:57;15.38;118.99
66312;HTU21D;53114;51.138;6.008;2023-05-07T04:13:27;15.39;118.99
66312;HTU21D;53114;51.138;6.008;2023-05-07T04:15:55;15.39;118.99
66312;HTU21D;53114;51.138;6.008;2023-05-07T04:18:21;15.39;118.99
66312;HTU21D;53114;51.138;6.008;2023-05-07T04:20:48;15.36;118.99
66312;HTU21D;53114;51.138;6.008;2023-05-07T04:23:17;15.34;118.99
66312;HTU21D;53114;51.138;6.008;2023-05-07T04:25:43;15.32;118.99
66312;HTU21D;53114;51.138;6.008;2023-05-07T04:28:26;15.29;118.99
66312;HTU21D;53114;51.138;6.008;2023-05-07T04:30:52;15.31;118.99
66312;HTU21D;53114;51.138;6.008;2023-05-07T04:33:19;15.34;118.99
66312;HTU21D;53114;51.138;6.008;2023-05-07T04:35:47;15.41;118.99
66312;HTU21D;53114;51.138;6.008;2023-05-07T04:38:13;15.44;118.99
66312;HTU21D;53114;51.138;6.008;2023-05-07T04:40:39;15.46;118.99
66312;HTU21D;53114;51.138;6.008;2023-05-07T04:43:06;15.46;118.99
66312;HTU21D;53114;51.138;6.008;2023-05-07T04:45:40;15.51;118.99
66312;HTU21D;53114;51.138;6.008;2023-05-07T04:48:09;15.55;118.99
66312;HTU21D;53114;51.138;6.008;2023-05-07T04:50:36;15.58;118.99
66312;HTU21D;53114;51.138;6.008;2023-05-07T04:53:03;15.63;118.99
66312;HTU21D;53114;51.138;6.008;2023-05-07T04:55:29;15.63;118.99
66312;HTU21D;53114;51.138;6.008;2023-05-07T04:57:56;15.70;118.99
66312;HTU21D;53114;51.138;6.008;2023-05-07T05:00:23;15.77;118.99
66312;HTU21D;53114;51.138;6.008;2023-05-07T05:02:50;15.88;118.99
66312;HTU21D;53114;51.138;6.008;2023-05-07T05:05:19;15.96;118.99
66312;HTU21D;53114;51.138;6.008;2023-05-07T05:07:47;16.01;118.99
66312;HTU21D;53114;51.138;6.008;2023-05-07T05:10:13;16.07;118.99
66312;HTU21D;53114;51.138;6.008;2023-05-07T05:12:40;16.11;118.99
66312;HTU21D;53114;51.138;6.008;2023-05-07T05:15:07;16.12;118.99
66312;HTU21D;53114;51.138;6.008;2023-05-07T05:17:33;16.14;118.99
66312;HTU21D;53114;51.138;6.008;2023-05-07T05:20:02;16.16;118.99
66312;HTU21D;53114;51.138;6.008;2023-05-07T05:22:29;16.21;118.99
66312;HTU21D;53114;51.138;6.008;2023-05-07T05:24:58;16.29;118.99
66312;HTU21D;53114;51.138;6.008;2023-05-07T05:27:24;16.36;118.99
66312;HTU21D;53114;51.138;6.008;2023-05-07T05:29:50;16.45;118.99
66312;HTU21D;53114;51.138;6.008;2023-05-07T05:32:16;16.47;118.99
66312;HTU21D;53114;51.138;6.008;2023-05-07T05:34:42;16.54;118.99
66312;HTU21D;53114;51.138;6.008;2023-05-07T05:37:16;16.62;118.99
66312;HTU21D;53114;51.138;6.008;2023-05-07T05:39:43;16.70;118.99
66312;HTU21D;53114;51.138;6.008;2023-05-07T05:42:10;16.79;118.99
66312;HTU21D;53114;51.138;6.008;2023-05-07T05:44:36;16.98;118.99
66312;HTU21D;53114;51.138;6.008;2023-05-07T05:47:02;17.16;118.99
66312;HTU21D;53114;51.138;6.008;2023-05-07T05:49:29;17.33;118.99
66312;HTU21D;53114;51.138;6.008;2023-05-07T05:51:55;17.40;118.99
66312;HTU21D;53114;51.138;6.008;2023-05-07T05:54:24;17.49;118.99
66312;HTU21D;53114;51.138;6.008;2023-05-07T05:56:50;17.54;118.99
66312;HTU21D;53114;51.138;6.008;2023-05-07T05:59:16;17.60;118.99
66312;HTU21D;53114;51.138;6.008;2023-05-07T06:01:42;17.64;118.99
66312;HTU21D;53114;51.138;6.008;2023-05-07T06:04:09;17.56;118.99
66312;HTU21D;53114;51.138;6.008;2023-05-07T06:06:35;17.47;118.99
66312;HTU21D;53114;51.138;6.008;2023-05-07T06:09:06;17.39;118.99
66312;HTU21D;53114;51.138;6.008;2023-05-07T06:11:42;17.37;118.99
66312;HTU21D;53114;51.138;6.008;2023-05-07T06:14:10;17.39;118.99
66312;HTU21D;53114;51.138;6.008;2023-05-07T06:16:37;17.44;118.99
66312;HTU21D;53114;51.138;6.008;2023-05-07T06:19:05;17.44;118.99
66312;HTU21D;53114;51.138;6.008;2023-05-07T06:21:31;17.43;118.99
66312;HTU21D;53114;51.138;6.008;2023-05-07T06:23:57;17.44;118.99
66312;HTU21D;53114;51.138;6.008;2023-05-07T06:26:23;17.53;118.99
66312;HTU21D;53114;51.138;6.008;2023-05-07T06:28:49;17.61;118.99
66312;HTU21D;53114;51.138;6.008;2023-05-07T06:31:18;17.74;118.99
66312;HTU21D;53114;51.138;6.008;2023-05-07T06:33:59;17.90;118.99
66312;HTU21D;53114;51.138;6.008;2023-05-07T06:36:31;18.08;118.99
66312;HTU21D;53114;51.138;6.008;2023-05-07T06:39:00;18.25;118.99
66312;HTU21D;53114;51.138;6.008;2023-05-07T06:41:27;18.37;118.99
66312;HTU21D;53114;51.138;6.008;2023-05-07T06:43:54;18.48;118.99
66312;HTU21D;53114;51.138;6.008;2023-05-07T06:46:38;18.63;118.99
66312;HTU21D;53114;51.138;6.008;2023-05-07T06:49:05;18.74;118.99
66312;HTU21D;53114;51.138;6.008;2023-05-07T06:51:31;18.83;118.99
66312;HTU21D;53114;51.138;6.008;2023-05-07T06:54:01;18.86;118.99
66312;HTU21D;53114;51.138;6.008;2023-05-07T06:56:27;18.86;118.99
66312;HTU21D;53114;51.138;6.008;2023-05-07T06:58:53;18.87;118.99
66312;HTU21D;53114;51.138;6.008;2023-05-07T07:01:20;18.95;118.99
66312;HTU21D;53114;51.138;6.008;2023-05-07T07:03:46;19.02;118.99
66312;HTU21D;53114;51.138;6.008;2023-05-07T07:06:12;19.15;118.99
66312;HTU21D;53114;51.138;6.008;2023-05-07T07:08:38;19.25;118.99
66312;HTU21D;53114;51.138;6.008;2023-05-07T07:11:06;19.31;118.99
66312;HTU21D;53114;51.138;6.008;2023-05-07T07:13:32;19.37;118.99
66312;HTU21D;53114;51.138;6.008;2023-05-07T07:15:58;19.47;118.99
66312;HTU21D;53114;51.138;6.008;2023-05-07T07:18:25;19.53;118.99
66312;HTU21D;53114;51.138;6.008;2023-05-07T07:20:54;19.61;118.99
66312;HTU21D;53114;51.138;6.008;2023-05-07T07:23:20;19.71;118.99
66312;HTU21D;53114;51.138;6.008;2023-05-07T07:25:47;19.77;118.99
66312;HTU21D;53114;51.138;6.008;2023-05-07T07:28:16;19.81;118.99
66312;HTU21D;53114;51.138;6.008;2023-05-07T07:30:43;20.00;118.99
66312;HTU21D;53114;51.138;6.008;2023-05-07T07:33:11;20.18;118.99
66312;HTU21D;53114;51.138;6.008;2023-05-07T07:35:38;20.36;118.99
66312;HTU21D;53114;51.138;6.008;2023-05-07T07:38:05;20.60;118.99
66312;HTU21D;53114;51.138;6.008;2023-05-07T07:40:31;20.74;118.99
66312;HTU21D;53114;51.138;6.008;2023-05-07T07:42:57;20.87;118.99
66312;HTU21D;53114;51.138;6.008;2023-05-07T07:45:23;21.09;118.99
66312;HTU21D;53114;51.138;6.008;2023-05-07T07:47:51;21.33;118.99
66312;HTU21D;53114;51.138;6.008;2023-05-07T07:50:17;21.63;118.99
66312;HTU21D;53114;51.138;6.008;2023-05-07T07:52:43;21.89;118.99
66312;HTU21D;53114;51.138;6.008;2023-05-07T07:55:11;22.04;118.99
66312;HTU21D;53114;51.138;6.008;2023-05-07T07:57:38;22.20;118.99
66312;HTU21D;53114;51.138;6.008;2023-05-07T08:00:06;22.38;118.99
66312;HTU21D;53114;51.138;6.008;2023-05-07T08:02:42;22.50;118.99
66312;HTU21D;53114;51.138;6.008;2023-05-07T08:05:09;22.81;118.99
66312;HTU21D;53114;51.138;6.008;2023-05-07T08:07:35;23.14;118.99
66312;HTU21D;53114;51.138;6.008;2023-05-07T08:10:02;23.65;118.99
66312;HTU21D;53114;51.138;6.008;2023-05-07T08:12:28;24.31;116.72
66312;HTU21D;53114;51.138;6.008;2023-05-07T08:14:54;25.29;112.06
66312;HTU21D;53114;51.138;6.008;2023-05-07T08:17:21;26.54;102.50
66312;HTU21D;53114;51.138;6.008;2023-05-07T08:19:48;26.66;100.73
66312;HTU21D;53114;51.138;6.008;2023-05-07T08:22:15;26.23;101.77
66312;HTU21D;53114;51.138;6.008;2023-05-07T08:24:41;25.69;103.41
66312;HTU21D;53114;51.138;6.008;2023-05-07T08:27:07;25.64;105.93
66312;HTU21D;53114;51.138;6.008;2023-05-07T08:29:33;26.47;104.60
66312;HTU21D;53114;51.138;6.008;2023-05-07T08:32:00;26.93;97.38
66312;HTU21D;53114;51.138;6.008;2023-05-07T08:34:26;27.40;91.31
66312;HTU21D;53114;51.138;6.008;2023-05-07T08:36:53;28.14;87.62
66312;HTU21D;53114;51.138;6.008;2023-05-07T08:39:22;29.30;82.79
66312;HTU21D;53114;51.138;6.008;2023-05-07T08:41:55;30.04;75.86
66312;HTU21D;53114;51.138;6.008;2023-05-07T08:44:26;30.39;67.33
66312;HTU21D;53114;51.138;6.008;2023-05-07T08:46:58;30.45;64.59
66312;HTU21D;53114;51.138;6.008;2023-05-07T08:49:25;30.24;61.38
66312;HTU21D;53114;51.138;6.008;2023-05-07T08:51:52;29.79;59.72
66312;HTU21D;53114;51.138;6.008;2023-05-07T08:54:20;28.89;64.49
66312;HTU21D;53114;51.138;6.008;2023-05-07T08:56:47;28.12;75.52
66312;HTU21D;53114;51.138;6.008;2023-05-07T08:59:14;27.34;80.36
66312;HTU21D;53114;51.138;6.008;2023-05-07T09:01:42;26.70;88.91
66312;HTU21D;53114;51.138;6.008;2023-05-07T09:04:09;26.10;93.09
66312;HTU21D;53114;51.138;6.008;2023-05-07T09:06:36;25.37;95.65
66312;HTU21D;53114;51.138;6.008;2023-05-07T09:09:04;24.83;101.15
66312;HTU21D;53114;51.138;6.008;2023-05-07T09:11:32;24.61;107.25
66312;HTU21D;53114;51.138;6.008;2023-05-07T09:13:59;24.55;106.73
66312;HTU21D;53114;51.138;6.008;2023-05-07T09:16:31;24.43;108.27
66312;HTU21D;53114;51.138;6.008;2023-05-07T09:18:59;24.33;107.54
66312;HTU21D;53114;51.138;6.008;2023-05-07T09:21:26;24.33;105.88
66312;HTU21D;53114;51.138;6.008;2023-05-07T09:23:55;24.21;106.51
66312;HTU21D;53114;51.138;6.008;2023-05-07T09:26:27;24.00;106.58
66312;HTU21D;53114;51.138;6.008;2023-05-07T09:28:54;23.94;109.28
66312;HTU21D;53114;51.138;6.008;2023-05-07T09:31:20;23.90;108.19
66312;HTU21D;53114;51.138;6.008;2023-05-07T09:33:49;23.82;111.07
66312;HTU21D;53114;51.138;6.008;2023-05-07T09:36:15;23.66;112.00
66312;HTU21D;53114;51.138;6.008;2023-05-07T09:38:41;23.57;112.61
66312;HTU21D;53114;51.138;6.008;2023-05-07T09:41:10;23.46;113.32
66312;HTU21D;53114;51.138;6.008;2023-05-07T09:43:55;23.37;111.41
66312;HTU21D;53114;51.138;6.008;2023-05-07T09:46:29;23.23;108.23
66312;HTU21D;53114;51.138;6.008;2023-05-07T09:48:58;23.13;106.62
66312;HTU21D;53114;51.138;6.008;2023-05-07T09:51:34;23.11;107.68
66312;HTU21D;53114;51.138;6.008;2023-05-07T09:54:04;23.28;105.27
66312;HTU21D;53114;51.138;6.008;2023-05-07T09:56:34;23.53;103.53
66312;HTU21D;53114;51.138;6.008;2023-05-07T09:59:06;23.87;103.48
66312;HTU21D;53114;51.138;6.008;2023-05-07T10:01:36;24.23;102.60
66312;HTU21D;53114;51.138;6.008;2023-05-07T10:04:03;24.47;104.35
66312;HTU21D;53114;51.138;6.008;2023-05-07T10:06:38;24.58;106.68
66312;HTU21D;53114;51.138;6.008;2023-05-07T10:09:05;24.59;104.69
66312;HTU21D;53114;51.138;6.008;2023-05-07T10:11:35;24.57;106.92
66312;HTU21D;53114;51.138;6.008;2023-05-07T10:14:03;24.57;105.69
66312;HTU21D;53114;51.138;6.008;2023-05-07T10:16:33;24.56;105.99
66312;HTU21D;53114;51.138;6.008;2023-05-07T10:19:08;24.59;107.08
66312;HTU21D;53114;51.138;6.008;2023-05-07T10:21:40;24.54;102.54
66312;HTU21D;53114;51.138;6.008;2023-05-07T10:24:19;24.55;103.98
66312;HTU21D;53114;51.138;6.008;2023-05-07T10:26:51;24.68;103.93
66312;HTU21D;53114;51.138;6.008;2023-05-07T10:32:37;24.59;106.01
66312;HTU21D;53114;51.138;6.008;2023-05-07T10:35:14;24.72;107.72
66312;HTU21D;53114;51.138;6.008;2023-05-07T10:37:41;24.88;107.48
66312;HTU21D;53114;51.138;6.008;2023-05-07T10:40:10;25.15;106.53
66312;HTU21D;53114;51.138;6.008;2023-05-07T10:42:36;25.75;105.66
66312;HTU21D;53114;51.138;6.008;2023-05-07T10:45:13;27.02;103.16
66312;HTU21D;53114;51.138;6.008;2023-05-07T10:48:20;28.48;85.42
66312;HTU21D;53114;51.138;6.008;2023-05-07T10:51:19;28.37;79.14
66312;HTU21D;53114;51.138;6.008;2023-05-07T10:56:42;27.26;84.47
66312;HTU21D;53114;51.138;6.008;2023-05-07T11:01:56;26.58;89.27
66312;HTU21D;53114;51.138;6.008;2023-05-07T11:04:37;26.26;94.21
66312;HTU21D;53114;51.138;6.008;2023-05-07T11:07:25;26.08;97.61
66312;HTU21D;53114;51.138;6.008;2023-05-07T11:12:54;25.82;94.20
66312;HTU21D;53114;51.138;6.008;2023-05-07T11:15:38;25.83;95.58
66312;HTU21D;53114;51.138;6.008;2023-05-07T11:18:12;25.80;93.68
66312;HTU21D;53114;51.138;6.008;2023-05-07T11:20:55;25.78;93.46
66312;HTU21D;53114;51.138;6.008;2023-05-07T11:26:30;25.64;90.08
66312;HTU21D;53114;51.138;6.008;2023-05-07T11:28:58;25.51;93.29
66312;HTU21D;53114;51.138;6.008;2023-05-07T11:31:27;25.39;93.80
66312;HTU21D;53114;51.138;6.008;2023-05-07T11:33:57;25.27;93.59
66312;HTU21D;53114;51.138;6.008;2023-05-07T11:36:24;25.05;96.63
66312;HTU21D;53114;51.138;6.008;2023-05-07T11:38:53;24.92;98.67
66312;HTU21D;53114;51.138;6.008;2023-05-07T11:41:22;24.97;94.37
66312;HTU21D;53114;51.138;6.008;2023-05-07T11:43:59;24.79;95.22
66312;HTU21D;53114;51.138;6.008;2023-05-07T11:46:26;24.59;94.67
66312;HTU21D;53114;51.138;6.008;2023-05-07T11:48:52;24.38;99.19
66312;HTU21D;53114;51.138;6.008;2023-05-07T11:51:22;24.26;99.74
66312;HTU21D;53114;51.138;6.008;2023-05-07T11:53:50;24.15;100.48
66312;HTU21D;53114;51.138;6.008;2023-05-07T11:56:19;24.06;98.70
66312;HTU21D;53114;51.138;6.008;2023-05-07T11:58:47;23.96;104.05
66312;HTU21D;53114;51.138;6.008;2023-05-07T12:01:14;23.81;107.07
66312;HTU21D;53114;51.138;6.008;2023-05-07T12:03:43;23.64;111.24
66312;HTU21D;53114;51.138;6.008;2023-05-07T12:06:15;23.39;112.52
66312;HTU21D;53114;51.138;6.008;2023-05-07T12:08:44;23.22;112.98
66312;HTU21D;53114;51.138;6.008;2023-05-07T12:11:22;23.08;115.79
66312;HTU21D;53114;51.138;6.008;2023-05-07T12:13:48;22.92;116.98
66312;HTU21D;53114;51.138;6.008;2023-05-07T12:16:15;22.83;112.91
66312;HTU21D;53114;51.138;6.008;2023-05-07T12:18:41;22.83;112.84
66312;HTU21D;53114;51.138;6.008;2023-05-07T12:21:08;22.84;110.97
66312;HTU21D;53114;51.138;6.008;2023-05-07T12:23:36;22.90;114.48
66312;HTU21D;53114;51.138;6.008;2023-05-07T12:26:03;22.82;115.89
66312;HTU21D;53114;51.138;6.008;2023-05-07T12:28:35;22.75;114.86
66312;HTU21D;53114;51.138;6.008;2023-05-07T12:31:02;22.62;118.99
66312;HTU21D;53114;51.138;6.008;2023-05-07T12:33:28;22.54;118.99
66312;HTU21D;53114;51.138;6.008;2023-05-07T12:35:55;22.42;118.99
66312;HTU21D;53114;51.138;6.008;2023-05-07T12:38:22;22.33;118.99
66312;HTU21D;53114;51.138;6.008;2023-05-07T12:40:50;22.39;118.99
66312;HTU21D;53114;51.138;6.008;2023-05-07T12:43:26;22.55;118.99
66312;HTU21D;53114;51.138;6.008;2023-05-07T12:46:05;22.68;118.99
66312;HTU21D;53114;51.138;6.008;2023-05-07T12:48:31;22.72;118.99
66312;HTU21D;53114;51.138;6.008;2023-05-07T12:51:00;22.64;118.99
66312;HTU21D;53114;51.138;6.008;2023-05-07T12:53:27;22.40;118.99
66312;HTU21D;53114;51.138;6.008;2023-05-07T12:55:55;22.13;118.99
66312;HTU21D;53114;51.138;6.008;2023-05-07T12:58:35;21.95;118.99
66312;HTU21D;53114;51.138;6.008;2023-05-07T13:01:05;21.79;118.99
66312;HTU21D;53114;51.138;6.008;2023-05-07T13:03:33;21.70;118.99
66312;HTU21D;53114;51.138;6.008;2023-05-07T13:06:05;21.62;118.99
66312;HTU21D;53114;51.138;6.008;2023-05-07T13:08:33;21.60;118.99
66312;HTU21D;53114;51.138;6.008;2023-05-07T13:11:01;21.57;118.99
66312;HTU21D;53114;51.138;6.008;2023-05-07T13:13:31;21.57;118.99
66312;HTU21D;53114;51.138;6.008;2023-05-07T13:15:57;21.61;118.99
66312;HTU21D;53114;51.138;6.008;2023-05-07T13:18:25;21.64;118.99
66312;HTU21D;53114;51.138;6.008;2023-05-07T13:20:53;21.65;118.99
66312;HTU21D;53114;51.138;6.008;2023-05-07T13:23:19;21.65;118.99
66312;HTU21D;53114;51.138;6.008;2023-05-07T13:25:45;21.61;118.99
66312;HTU21D;53114;51.138;6.008;2023-05-07T13:28:11;21.57;118.99
66312;HTU21D;53114;51.138;6.008;2023-05-07T13:30:38;21.57;118.99
66312;HTU21D;53114;51.138;6.008;2023-05-07T13:33:04;21.58;118.99
66312;HTU21D;53114;51.138;6.008;2023-05-07T13:35:30;21.57;118.99
66312;HTU21D;53114;51.138;6.008;2023-05-07T13:37:56;21.55;118.99
66312;HTU21D;53114;51.138;6.008;2023-05-07T13:40:22;21.53;118.99
66312;HTU21D;53114;51.138;6.008;2023-05-07T13:42:48;21.54;118.99
66312;HTU21D;53114;51.138;6.008;2023-05-07T13:45:15;21.57;118.99
66312;HTU21D;53114;51.138;6.008;2023-05-07T13:47:44;21.55;118.99
66312;HTU21D;53114;51.138;6.008;2023-05-07T13:50:11;21.53;118.99
66312;HTU21D;53114;51.138;6.008;2023-05-07T13:52:42;21.55;118.99
66312;HTU21D;53114;51.138;6.008;2023-05-07T13:55:09;21.59;118.99
66312;HTU21D;53114;51.138;6.008;2023-05-07T13:57:36;21.62;118.99
66312;HTU21D;53114;51.138;6.008;2023-05-07T14:00:03;21.59;118.99
66312;HTU21D;53114;51.138;6.008;2023-05-07T14:02:41;21.57;118.99
66312;HTU21D;53114;51.138;6.008;2023-05-07T14:05:07;21.58;118.99
66312;HTU21D;53114;51.138;6.008;2023-05-07T14:07:34;21.65;118.99
66312;HTU21D;53114;51.138;6.008;2023-05-07T14:10:01;21.77;118.99
66312;HTU21D;53114;51.138;6.008;2023-05-07T14:12:27;21.88;118.99
66312;HTU21D;53114;51.138;6.008;2023-05-07T14:14:53;21.94;118.99
66312;HTU21D;53114;51.138;6.008;2023-05-07T14:17:20;22.08;118.99
66312;HTU21D;53114;51.138;6.008;2023-05-07T14:19:48;22.20;118.99
66312;HTU21D;53114;51.138;6.008;2023-05-07T14:22:14;22.34;118.99
66312;HTU21D;53114;51.138;6.008;2023-05-07T14:24:41;22.51;118.99
66312;HTU21D;53114;51.138;6.008;2023-05-07T14:27:07;22.69;118.99
66312;HTU21D;53114;51.138;6.008;2023-05-07T14:29:33;22.84;118.99
66312;HTU21D;53114;51.138;6.008;2023-05-07T14:32:01;22.98;118.99
66312;HTU21D;53114;51.138;6.008;2023-05-07T14:34:28;23.14;118.99
66312;HTU21D;53114;51.138;6.008;2023-05-07T14:36:54;23.23;118.99
66312;HTU21D;53114;51.138;6.008;2023-05-07T14:39:21;23.27;118.08
66312;HTU21D;53114;51.138;6.008;2023-05-07T14:41:47;23.29;116.92
66312;HTU21D;53114;51.138;6.008;2023-05-07T14:44:13;23.30;116.57
66312;HTU21D;53114;51.138;6.008;2023-05-07T14:46:39;23.25;115.71
66312;HTU21D;53114;51.138;6.008;2023-05-07T14:49:05;23.25;117.38
66312;HTU21D;53114;51.138;6.008;2023-05-07T14:51:32;23.28;116.34
66312;HTU21D;53114;51.138;6.008;2023-05-07T14:54:00;23.25;116.20
66312;HTU21D;53114;51.138;6.008;2023-05-07T14:56:27;23.22;116.47
66312;HTU21D;53114;51.138;6.008;2023-05-07T14:58:53;23.21;116.47
66312;HTU21D;53114;51.138;6.008;2023-05-07T15:01:20;23.17;117.07
66312;HTU21D;53114;51.138;6.008;2023-05-07T15:03:47;23.15;116.86
66312;HTU21D;53114;51.138;6.008;2023-05-07T15:06:13;23.13;116.92
66312;HTU21D;53114;51.138;6.008;2023-05-07T15:08:39;23.23;118.05
66312;HTU21D;53114;51.138;6.008;2023-05-07T15:11:05;23.26;116.56
66312;HTU21D;53114;51.138;6.008;2023-05-07T15:13:31;23.26;114.74
66312;HTU21D;53114;51.138;6.008;2023-05-07T15:15:57;23.21;111.78
66312;HTU21D;53114;51.138;6.008;2023-05-07T15:18:23;23.12;111.52
66312;HTU21D;53114;51.138;6.008;2023-05-07T15:20:49;23.12;110.54
66312;HTU21D;53114;51.138;6.008;2023-05-07T15:23:15;23.11;111.09